Time;durP1;ratioP1;P1;durP2;ratioP2;P2;SDS_P1;SDS_P2;PMS_P1;PMS_P2;Temp;Humidity;BMP_temperature;BMP_pressure;BME280_temperature;BME280_humidity;BME280_pressure;Samples;Min_cycle;Max_cycle;Signal;HPM_P1;HPM_P2
2022/11/05 00:09:47;;;;;;;11.20;6.53;;;;;;;;;;1030618;28;20253;-76
2022/11/05 00:10:18;;;;;;;13.20;7.10;;;;;;;;;;1031048;28;20061;-76
2022/11/05 00:10:48;;;;;;;12.50;5.97;;;;;;;;;;1026740;28;20019;-76
2022/11/05 00:16:42;;;;;;;10.38;6.03;;;;;;;;;;1027219;28;20046;-76
2022/11/05 00:17:04;;;;;;;14.35;6.38;;;;;;;;;;1030302;28;20027;-76
2022/11/05 00:17:34;;;;;;;10.57;7.47;;;;;;;;;;1029610;28;20054;-76
2022/11/05 00:18:05;;;;;;;18.23;7.50;;;;;;;;;;1030369;28;20469;-76
2022/11/05 00:18:36;;;;;;;19.67;8.52;;;;;;;;;;1029719;28;20117;-76
2022/11/05 00:19:06;;;;;;;14.60;8.38;;;;;;;;;;1029468;28;20034;-76
2022/11/05 00:19:37;;;;;;;20.27;8.02;;;;;;;;;;1025681;28;20018;-76
2022/11/05 00:20:08;;;;;;;14.18;8.32;;;;;;;;;;1026126;28;20453;-76
2022/11/05 00:20:39;;;;;;;18.20;8.38;;;;;;;;;;1024927;28;20047;-76
2022/11/05 00:25:17;;;;;;;16.35;8.13;;;;;;;;;;1031394;28;20026;-76
2022/11/05 00:25:54;;;;;;;18.23;8.88;;;;;;;;;;1032118;28;20491;-76
2022/11/05 00:26:24;;;;;;;21.30;10.00;;;;;;;;;;1031118;28;20022;-76
2022/11/05 00:26:55;;;;;;;15.30;7.90;;;;;;;;;;1028435;28;20455;-76
2022/11/05 00:27:26;;;;;;;8.13;5.18;;;;;;;;;;1029962;28;20493;-76
2022/11/05 00:27:59;;;;;;;19.23;8.80;;;;;;;;;;1030019;28;20054;-76
2022/11/05 00:28:30;;;;;;;17.15;8.75;;;;;;;;;;1029790;28;20030;-76
2022/11/05 00:29:01;;;;;;;17.50;7.95;;;;;;;;;;1030315;28;20110;-76
2022/11/05 00:29:31;;;;;;;15.93;7.85;;;;;;;;;;1029686;28;20173;-76
2022/11/05 00:30:02;;;;;;;17.60;7.90;;;;;;;;;;1030678;28;20034;-77
2022/11/05 00:30:33;;;;;;;22.13;8.68;;;;;;;;;;1025652;28;20030;-77
2022/11/05 00:31:05;;;;;;;23.60;11.25;;;;;;;;;;1024910;28;20024;-77
2022/11/05 00:31:35;;;;;;;16.13;8.93;;;;;;;;;;1027796;28;20113;-77
2022/11/05 00:32:06;;;;;;;21.67;9.57;;;;;;;;;;1028192;28;20402;-77
2022/11/05 00:32:37;;;;;;;19.15;9.50;;;;;;;;;;1031915;28;20073;-77
2022/11/05 00:33:07;;;;;;;20.15;10.43;;;;;;;;;;1031916;28;20549;-77
2022/11/05 00:33:38;;;;;;;21.13;10.23;;;;;;;;;;1031571;28;20018;-77
2022/11/05 00:34:09;;;;;;;18.15;9.10;;;;;;;;;;1032006;28;20030;-77
2022/11/05 00:34:39;;;;;;;20.17;8.27;;;;;;;;;;1027685;28;20027;-77
2022/11/05 00:35:10;;;;;;;23.15;8.55;;;;;;;;;;1023716;29;20070;-77
2022/11/05 00:35:41;;;;;;;25.90;10.40;;;;;;;;;;1019582;29;20052;-77
2022/11/05 00:36:11;;;;;;;22.70;9.80;;;;;;;;;;1019933;29;20024;-77
2022/11/05 00:36:42;;;;;;;18.60;8.82;;;;;;;;;;1023817;28;20067;-77
2022/11/05 00:37:12;;;;;;;19.52;9.07;;;;;;;;;;1031274;28;20026;-77
2022/11/05 00:37:43;;;;;;;18.33;9.02;;;;;;;;;;1032529;28;20473;-77
2022/11/05 00:38:13;;;;;;;16.42;9.45;;;;;;;;;;1031773;28;20446;-77
2022/11/05 00:38:44;;;;;;;31.95;8.75;;;;;;;;;;1031750;28;20026;-77
2022/11/05 00:39:14;;;;;;;19.13;9.70;;;;;;;;;;1031766;28;20116;-77
2022/11/05 00:39:45;;;;;;;14.95;8.05;;;;;;;;;;1031800;28;20144;-77
2022/11/05 00:40:16;;;;;;;15.57;7.70;;;;;;;;;;1031424;28;20049;-77
2022/11/05 00:40:46;;;;;;;25.75;8.52;;;;;;;;;;1031666;28;20085;-77
2022/11/05 00:41:17;;;;;;;28.60;10.60;;;;;;;;;;1031345;28;20140;-77
2022/11/05 00:44:58;;;;;;;29.80;10.38;;;;;;;;;;1031477;28;20509;-77
2022/11/05 00:45:06;;;;;;;15.23;8.95;;;;;;;;;;1031077;28;20250;-77
2022/11/05 00:45:36;;;;;;;22.02;11.15;;;;;;;;;;1031963;28;20022;-77
2022/11/05 00:46:07;;;;;;;24.80;8.48;;;;;;;;;;1032519;28;20442;-77
2022/11/05 00:46:38;;;;;;;19.88;8.65;;;;;;;;;;1032246;28;20057;-77
2022/11/05 00:49:35;;;;;;;32.45;9.95;;;;;;;;;;1031446;28;20767;-77
2022/11/05 00:50:06;;;;;;;23.58;9.48;;;;;;;;;;1032730;28;20054;-77
2022/11/05 00:50:36;;;;;;;18.75;8.63;;;;;;;;;;1032576;28;20113;-76
2022/11/05 00:51:07;;;;;;;22.58;9.18;;;;;;;;;;1032169;28;20022;-76
2022/11/05 00:51:38;;;;;;;26.13;10.02;;;;;;;;;;1032019;28;20121;-76
2022/11/05 00:52:59;;;;;;;26.73;10.48;;;;;;;;;;1031811;28;20470;-76
2022/11/05 00:53:29;;;;;;;31.40;11.70;;;;;;;;;;1031520;28;20068;-76
2022/11/05 00:54:00;;;;;;;21.50;11.27;;;;;;;;;;1032263;28;20028;-76
2022/11/05 00:54:30;;;;;;;24.05;10.93;;;;;;;;;;1032094;28;20077;-76
2022/11/05 00:55:01;;;;;;;35.50;14.48;;;;;;;;;;1031953;28;20029;-76
2022/11/05 00:55:32;;;;;;;88.80;31.95;;;;;;;;;;1031642;28;20022;-76
2022/11/05 00:56:02;;;;;;;92.45;35.88;;;;;;;;;;1032012;28;20054;-76
2022/11/05 00:56:33;;;;;;;126.60;46.30;;;;;;;;;;1030324;28;20033;-76
2022/11/05 00:57:04;;;;;;;90.85;33.22;;;;;;;;;;1029858;28;20106;-76
2022/11/05 00:57:34;;;;;;;95.10;37.10;;;;;;;;;;1021496;29;20028;-76
2022/11/05 00:58:06;;;;;;;101.90;40.45;;;;;;;;;;1021762;29;20070;-76
2022/11/05 00:58:37;;;;;;;95.75;39.72;;;;;;;;;;1021979;29;20538;-76
2022/11/05 00:59:07;;;;;;;97.10;42.08;;;;;;;;;;1024676;28;20024;-76
2022/11/05 00:59:38;;;;;;;112.55;41.90;;;;;;;;;;1024152;28;20082;-76
2022/11/05 01:00:10;;;;;;;118.72;45.88;;;;;;;;;;1027730;28;20022;-76
2022/11/05 01:00:47;;;;;;;109.57;47.20;;;;;;;;;;1027951;28;20447;-76
2022/11/05 01:01:17;;;;;;;99.57;42.88;;;;;;;;;;1032204;28;20129;-76
2022/11/05 01:01:48;;;;;;;96.20;37.97;;;;;;;;;;1032294;28;20030;-76
2022/11/05 01:02:18;;;;;;;90.15;37.50;;;;;;;;;;1032117;28;20030;-76
2022/11/05 01:02:49;;;;;;;78.30;37.35;;;;;;;;;;1031961;28;20458;-76
2022/11/05 01:03:21;;;;;;;79.53;35.53;;;;;;;;;;1031959;28;20065;-76
2022/11/05 01:03:52;;;;;;;65.47;25.92;;;;;;;;;;1032156;28;20076;-76
2022/11/05 01:04:22;;;;;;;53.85;23.83;;;;;;;;;;1031942;28;21265;-76
2022/11/05 01:04:53;;;;;;;50.80;27.83;;;;;;;;;;1032006;28;20037;-76
2022/11/05 01:05:23;;;;;;;51.97;21.88;;;;;;;;;;1031728;28;20022;-76
2022/11/05 01:05:58;;;;;;;58.15;19.80;;;;;;;;;;1032156;28;20482;-76
2022/11/05 01:06:28;;;;;;;47.97;20.90;;;;;;;;;;1030976;28;20057;-76
2022/11/05 01:06:59;;;;;;;33.70;16.85;;;;;;;;;;1028299;28;20022;-76
2022/11/05 01:07:29;;;;;;;41.85;18.77;;;;;;;;;;1032079;28;20022;-76
2022/11/05 01:08:00;;;;;;;47.97;17.52;;;;;;;;;;1032289;28;20038;-76
2022/11/05 01:08:31;;;;;;;40.40;18.73;;;;;;;;;;1032064;28;20471;-76
2022/11/05 01:09:01;;;;;;;33.05;17.20;;;;;;;;;;1032292;28;20108;-76
2022/11/05 01:09:32;;;;;;;34.60;14.95;;;;;;;;;;1032078;28;20053;-76
2022/11/05 01:10:02;;;;;;;35.33;15.27;;;;;;;;;;1032236;28;20033;-76
2022/11/05 01:10:33;;;;;;;31.38;16.13;;;;;;;;;;1029600;28;20402;-76
2022/11/05 01:11:08;;;;;;;25.92;15.07;;;;;;;;;;1028446;28;20071;-76
2022/11/05 01:11:40;;;;;;;38.88;17.13;;;;;;;;;;1029039;28;20576;-76
2022/11/05 01:12:11;;;;;;;34.55;14.52;;;;;;;;;;1029046;28;20181;-76
2022/11/05 01:12:41;;;;;;;31.83;15.98;;;;;;;;;;1030025;28;20541;-76
2022/11/05 01:13:12;;;;;;;34.05;16.40;;;;;;;;;;1030774;28;20117;-76
2022/11/05 01:13:43;;;;;;;36.17;15.40;;;;;;;;;;1031230;28;20023;-76
2022/11/05 01:14:17;;;;;;;35.58;16.00;;;;;;;;;;1031367;28;20018;-76
2022/11/05 01:14:48;;;;;;;25.92;15.77;;;;;;;;;;1029819;28;20018;-76
2022/11/05 01:15:19;;;;;;;26.42;16.50;;;;;;;;;;1030869;28;20037;-76
2022/11/05 01:15:49;;;;;;;30.45;15.40;;;;;;;;;;1029082;28;20347;-76
2022/11/05 01:16:20;;;;;;;39.28;18.15;;;;;;;;;;1029269;28;20070;-76
2022/11/05 01:16:50;;;;;;;29.92;14.68;;;;;;;;;;1025528;28;20031;-76
2022/11/05 01:17:21;;;;;;;40.15;19.10;;;;;;;;;;1025706;28;20375;-76
2022/11/05 01:17:52;;;;;;;31.67;14.85;;;;;;;;;;1026114;28;20030;-76
2022/11/05 01:18:23;;;;;;;46.17;17.25;;;;;;;;;;1023687;28;20534;-76
2022/11/05 01:18:53;;;;;;;36.90;17.10;;;;;;;;;;1027647;28;20069;-76
2022/11/05 01:19:24;;;;;;;27.17;16.27;;;;;;;;;;1031630;28;20052;-76
2022/11/05 01:19:54;;;;;;;33.10;18.00;;;;;;;;;;1031696;28;20038;-76
2022/11/05 01:20:25;;;;;;;32.80;17.23;;;;;;;;;;1031391;28;20149;-76
2022/11/05 01:20:56;;;;;;;35.33;18.33;;;;;;;;;;1023516;29;20027;-76
2022/11/05 01:21:26;;;;;;;36.53;17.80;;;;;;;;;;1020606;28;20031;-76
2022/11/05 01:21:57;;;;;;;30.00;16.10;;;;;;;;;;1025141;28;20035;-76
2022/11/05 01:22:27;;;;;;;26.33;15.63;;;;;;;;;;1024108;28;20038;-76
2022/11/05 01:22:58;;;;;;;39.75;17.23;;;;;;;;;;1028311;28;20065;-76
2022/11/05 01:23:29;;;;;;;44.13;17.33;;;;;;;;;;1031378;28;20033;-76
2022/11/05 01:23:59;;;;;;;29.52;17.48;;;;;;;;;;1031619;28;20036;-76
2022/11/05 01:24:30;;;;;;;35.95;16.38;;;;;;;;;;1031594;28;20026;-76
2022/11/05 01:25:00;;;;;;;36.20;15.27;;;;;;;;;;1031723;28;20051;-76
2022/11/05 01:25:31;;;;;;;37.03;16.65;;;;;;;;;;1031773;28;20053;-76
2022/11/05 01:26:02;;;;;;;35.97;18.08;;;;;;;;;;1032150;28;20026;-76
2022/11/05 01:26:32;;;;;;;33.95;17.05;;;;;;;;;;1029108;28;20386;-76
2022/11/05 01:27:03;;;;;;;39.33;16.73;;;;;;;;;;1030750;28;20038;-76
2022/11/05 01:27:34;;;;;;;39.10;16.60;;;;;;;;;;1031084;28;20042;-76
2022/11/05 01:28:05;;;;;;;35.10;15.63;;;;;;;;;;1032535;28;20033;-76
2022/11/05 01:28:36;;;;;;;35.63;15.73;;;;;;;;;;1031383;28;20060;-76
2022/11/05 01:29:07;;;;;;;38.05;17.10;;;;;;;;;;1029463;28;20045;-77
2022/11/05 01:29:37;;;;;;;39.00;16.27;;;;;;;;;;1029111;28;20136;-77
2022/11/05 01:30:08;;;;;;;39.42;20.38;;;;;;;;;;1028143;28;20571;-77
2022/11/05 01:30:39;;;;;;;36.25;16.63;;;;;;;;;;1023164;28;20027;-77
2022/11/05 01:31:09;;;;;;;48.58;17.92;;;;;;;;;;1031178;28;20520;-77
2022/11/05 01:31:40;;;;;;;43.45;19.13;;;;;;;;;;1030841;28;20532;-77
2022/11/05 01:32:10;;;;;;;34.97;18.40;;;;;;;;;;1030345;28;20037;-77
2022/11/05 01:32:41;;;;;;;41.03;17.98;;;;;;;;;;1029581;28;20475;-77
2022/11/05 01:33:12;;;;;;;32.60;18.25;;;;;;;;;;1032333;28;20113;-77
2022/11/05 01:33:43;;;;;;;39.90;19.52;;;;;;;;;;1031067;28;20026;-77
2022/11/05 01:34:14;;;;;;;42.97;20.25;;;;;;;;;;1031944;28;20060;-77
2022/11/05 01:34:44;;;;;;;48.95;21.38;;;;;;;;;;1031172;28;20030;-77
2022/11/05 01:35:15;;;;;;;40.50;19.13;;;;;;;;;;1031153;28;20053;-77
2022/11/05 01:35:48;;;;;;;37.40;17.13;;;;;;;;;;1031267;28;20500;-77
2022/11/05 01:36:19;;;;;;;35.33;16.05;;;;;;;;;;1030875;28;20026;-77
2022/11/05 01:36:50;;;;;;;32.88;17.38;;;;;;;;;;1027470;28;20390;-77
2022/11/05 01:37:20;;;;;;;33.63;17.85;;;;;;;;;;1027751;28;20027;-77
2022/11/05 01:37:52;;;;;;;41.30;17.13;;;;;;;;;;1031837;28;20023;-77
2022/11/05 01:38:22;;;;;;;28.02;16.80;;;;;;;;;;1031744;28;20026;-77
2022/11/05 01:38:53;;;;;;;31.08;15.98;;;;;;;;;;1031689;28;20023;-77
2022/11/05 01:39:23;;;;;;;35.88;16.70;;;;;;;;;;1031726;28;20045;-77
2022/11/05 01:39:54;;;;;;;42.25;15.95;;;;;;;;;;1031785;28;20030;-78
2022/11/05 01:40:25;;;;;;;38.25;17.38;;;;;;;;;;1031573;28;20225;-77
2022/11/05 01:40:55;;;;;;;32.50;16.98;;;;;;;;;;1031695;28;20018;-77
2022/11/05 01:41:26;;;;;;;44.13;16.05;;;;;;;;;;1030592;28;20022;-77
2022/11/05 01:41:57;;;;;;;40.72;17.35;;;;;;;;;;1029319;28;20068;-78
2022/11/05 01:42:30;;;;;;;34.97;15.23;;;;;;;;;;1025277;28;20023;-77
2022/11/05 01:43:00;;;;;;;31.65;16.90;;;;;;;;;;1025968;28;20494;-77
2022/11/05 01:43:47;;;;;;;27.00;15.00;;;;;;;;;;1024997;28;20038;-77
2022/11/05 01:44:37;;;;;;;38.70;15.30;;;;;;;;;;1028140;28;20405;-77
2022/11/05 01:45:12;;;;;;;40.15;17.75;;;;;;;;;;1031796;28;20034;-77
2022/11/05 01:45:43;;;;;;;39.80;15.27;;;;;;;;;;1029423;28;20229;-77
2022/11/05 01:46:16;;;;;;;42.08;16.80;;;;;;;;;;1029665;28;20034;-77
2022/11/05 01:46:46;;;;;;;43.90;15.57;;;;;;;;;;1029454;28;20030;-77
2022/11/05 01:47:29;;;;;;;45.05;17.02;;;;;;;;;;1031682;28;20026;-77
2022/11/05 01:48:01;;;;;;;34.35;16.17;;;;;;;;;;1031950;28;20018;-77
2022/11/05 01:48:34;;;;;;;36.78;16.85;;;;;;;;;;1031910;28;20061;-77
2022/11/05 01:49:25;;;;;;;38.72;16.70;;;;;;;;;;1030401;28;20081;-77
2022/11/05 01:49:57;;;;;;;45.38;17.83;;;;;;;;;;1030498;28;20062;-77
2022/11/05 01:50:29;;;;;;;30.80;16.70;;;;;;;;;;1030819;28;20032;-77
2022/11/05 01:51:03;;;;;;;38.70;18.10;;;;;;;;;;1030729;28;20099;-77
2022/11/05 01:51:33;;;;;;;32.83;16.08;;;;;;;;;;1030550;28;20019;-77
2022/11/05 01:52:04;;;;;;;32.60;18.30;;;;;;;;;;1030957;28;20544;-77
2022/11/05 01:52:35;;;;;;;49.67;17.50;;;;;;;;;;1024922;28;20033;-77
2022/11/05 01:53:14;;;;;;;35.72;17.92;;;;;;;;;;1026176;28;20031;-77
2022/11/05 01:53:50;;;;;;;34.83;16.60;;;;;;;;;;1030984;28;20390;-77
2022/11/05 01:54:23;;;;;;;33.90;17.48;;;;;;;;;;1030934;28;20061;-76
2022/11/05 01:54:54;;;;;;;38.33;16.08;;;;;;;;;;1031531;28;20070;-76
2022/11/05 01:55:27;;;;;;;47.47;18.42;;;;;;;;;;1031750;28;20128;-76
2022/11/05 01:56:03;;;;;;;37.40;17.17;;;;;;;;;;1027517;28;20058;-77
2022/11/05 01:56:41;;;;;;;40.92;16.70;;;;;;;;;;1025666;28;20050;-77
2022/11/05 01:57:13;;;;;;;30.40;16.88;;;;;;;;;;1025573;28;20030;-77
2022/11/05 01:57:44;;;;;;;37.13;14.95;;;;;;;;;;1026820;28;20364;-77
2022/11/05 01:58:17;;;;;;;45.60;15.23;;;;;;;;;;1025591;28;20038;-77
2022/11/05 01:58:51;;;;;;;39.35;16.10;;;;;;;;;;1024884;28;21258;-77
2022/11/05 01:59:22;;;;;;;32.08;16.73;;;;;;;;;;1027523;28;20030;-77
2022/11/05 01:59:54;;;;;;;41.17;16.48;;;;;;;;;;1028448;28;20027;-77
2022/11/05 02:00:26;;;;;;;31.58;16.48;;;;;;;;;;1031122;28;20084;-77
2022/11/05 02:00:57;;;;;;;28.98;15.55;;;;;;;;;;1027673;28;20026;-77
2022/11/05 02:01:28;;;;;;;55.25;16.45;;;;;;;;;;1027694;28;20117;-77
2022/11/05 02:02:00;;;;;;;40.30;14.55;;;;;;;;;;1027987;28;20117;-77
2022/11/05 02:02:30;;;;;;;32.35;14.60;;;;;;;;;;1028259;28;20030;-77
2022/11/05 02:03:01;;;;;;;26.50;15.77;;;;;;;;;;1031676;28;20018;-77
2022/11/05 02:03:32;;;;;;;51.45;16.98;;;;;;;;;;1028177;28;20022;-77
2022/11/05 02:04:04;;;;;;;41.72;15.45;;;;;;;;;;1032209;28;20026;-77
2022/11/05 02:04:37;;;;;;;23.85;14.63;;;;;;;;;;1030208;28;20033;-77
2022/11/05 02:05:08;;;;;;;41.10;19.08;;;;;;;;;;1028920;28;20027;-77
2022/11/05 02:05:39;;;;;;;40.80;17.45;;;;;;;;;;1030347;28;20026;-77
2022/11/05 02:06:10;;;;;;;43.95;17.27;;;;;;;;;;1029120;28;20030;-77
2022/11/05 02:06:46;;;;;;;29.33;15.80;;;;;;;;;;1029900;28;20030;-77
2022/11/05 02:07:17;;;;;;;32.30;15.02;;;;;;;;;;1031329;28;20430;-77
2022/11/05 02:07:48;;;;;;;47.35;16.23;;;;;;;;;;1025553;28;20023;-77
2022/11/05 02:08:31;;;;;;;26.50;12.50;;;;;;;;;;1024584;28;20019;-77
2022/11/05 02:09:11;;;;;;;34.78;14.85;;;;;;;;;;1024098;28;20023;-77
2022/11/05 02:09:48;;;;;;;29.13;12.20;;;;;;;;;;1027407;28;20022;-77
2022/11/05 02:10:19;;;;;;;34.40;15.10;;;;;;;;;;1028121;28;20034;-77
2022/11/05 02:10:50;;;;;;;29.55;13.38;;;;;;;;;;1025292;28;20552;-77
2022/11/05 02:11:21;;;;;;;30.35;13.45;;;;;;;;;;1024187;28;20062;-77
2022/11/05 02:11:52;;;;;;;29.88;11.95;;;;;;;;;;1026180;28;20069;-77
2022/11/05 02:12:23;;;;;;;26.60;13.02;;;;;;;;;;1026752;28;20031;-77
2022/11/05 02:12:53;;;;;;;23.58;12.95;;;;;;;;;;1027371;28;20589;-77
2022/11/05 02:13:24;;;;;;;31.52;14.25;;;;;;;;;;1026731;28;20027;-77
2022/11/05 02:13:54;;;;;;;24.13;11.80;;;;;;;;;;1027689;28;20485;-77
2022/11/05 02:14:25;;;;;;;24.42;12.35;;;;;;;;;;1027129;28;20023;-77
2022/11/05 02:14:56;;;;;;;24.88;11.32;;;;;;;;;;1027903;28;20454;-77
2022/11/05 02:15:39;;;;;;;30.60;10.65;;;;;;;;;;1028377;28;20030;-77
2022/11/05 02:16:32;;;;;;;27.27;11.15;;;;;;;;;;1027523;28;20018;-77
2022/11/05 02:17:06;;;;;;;25.02;9.27;;;;;;;;;;1031003;28;20753;-77
2022/11/05 02:17:42;;;;;;;25.27;10.63;;;;;;;;;;1024422;28;20027;-77
2022/11/05 02:18:19;;;;;;;24.23;11.75;;;;;;;;;;1027505;28;20031;-77
2022/11/05 02:18:55;;;;;;;23.33;10.20;;;;;;;;;;1027016;28;20027;-77
2022/11/05 02:19:46;;;;;;;24.85;11.55;;;;;;;;;;1029657;28;20130;-77
2022/11/05 02:20:26;;;;;;;19.70;10.90;;;;;;;;;;1017961;28;20385;-77
2022/11/05 02:21:05;;;;;;;24.77;10.48;;;;;;;;;;1030022;28;20027;-77
2022/11/05 02:21:48;;;;;;;23.63;11.70;;;;;;;;;;1027081;28;20023;-77
2022/11/05 02:22:18;;;;;;;21.00;10.85;;;;;;;;;;1027188;28;20500;-77
2022/11/05 02:23:01;;;;;;;18.83;9.80;;;;;;;;;;1025069;28;20033;-77
2022/11/05 02:23:40;;;;;;;19.17;8.52;;;;;;;;;;1030295;28;20050;-77
2022/11/05 02:24:30;;;;;;;30.95;10.93;;;;;;;;;;1031767;28;20022;-77
2022/11/05 02:25:13;;;;;;;19.77;10.50;;;;;;;;;;1031903;28;20525;-77
2022/11/05 02:26:02;;;;;;;17.52;9.55;;;;;;;;;;1031585;28;20026;-77
2022/11/05 02:26:48;;;;;;;23.45;11.13;;;;;;;;;;1031457;28;20030;-77
2022/11/05 02:27:25;;;;;;;25.88;11.07;;;;;;;;;;1031753;28;20034;-77
2022/11/05 02:28:14;;;;;;;29.13;12.98;;;;;;;;;;1031723;28;20394;-77
2022/11/05 02:28:51;;;;;;;21.17;11.18;;;;;;;;;;1028056;28;20117;-77
2022/11/05 02:29:29;;;;;;;22.90;11.25;;;;;;;;;;1028005;28;20025;-77
2022/11/05 02:30:04;;;;;;;21.00;10.82;;;;;;;;;;1029982;28;20022;-77
2022/11/05 02:30:46;;;;;;;27.20;12.50;;;;;;;;;;1018687;28;20046;-77
2022/11/05 02:31:28;;;;;;;21.90;12.98;;;;;;;;;;1033301;28;20080;-77
2022/11/05 02:32:04;;;;;;;24.73;14.98;;;;;;;;;;1032113;28;20030;-76
2022/11/05 02:32:39;;;;;;;30.02;15.55;;;;;;;;;;1033035;28;20022;-76
2022/11/05 02:33:22;;;;;;;27.67;13.15;;;;;;;;;;1031967;28;20022;-77
2022/11/05 02:34:02;;;;;;;29.20;14.30;;;;;;;;;;1032558;28;20175;-77
2022/11/05 02:34:39;;;;;;;24.50;12.52;;;;;;;;;;1030134;28;20027;-77
2022/11/05 02:35:12;;;;;;;40.53;14.85;;;;;;;;;;1030948;28;20038;-77
2022/11/05 02:35:43;;;;;;;36.95;14.05;;;;;;;;;;1030599;28;20019;-77
2022/11/05 02:36:16;;;;;;;38.35;14.50;;;;;;;;;;1030451;28;20117;-77
2022/11/05 02:36:51;;;;;;;43.28;15.18;;;;;;;;;;1031550;28;20120;-78
2022/11/05 02:37:21;;;;;;;37.33;16.70;;;;;;;;;;1030858;28;20076;-78
2022/11/05 02:37:53;;;;;;;47.33;17.27;;;;;;;;;;1027592;28;20521;-78
2022/11/05 02:38:27;;;;;;;41.45;16.30;;;;;;;;;;1027599;28;20038;-78
2022/11/05 02:39:03;;;;;;;39.88;17.73;;;;;;;;;;1026974;28;20125;-78
2022/11/05 02:39:36;;;;;;;35.38;15.05;;;;;;;;;;1026919;28;20031;-78
2022/11/05 02:40:10;;;;;;;31.65;16.40;;;;;;;;;;1031363;28;20066;-75
2022/11/05 02:40:48;;;;;;;41.58;14.48;;;;;;;;;;1032163;28;20045;-77
2022/11/05 02:41:32;;;;;;;39.58;16.17;;;;;;;;;;1028236;28;20038;-76
2022/11/05 02:42:10;;;;;;;31.08;13.35;;;;;;;;;;1029255;28;20023;-76
2022/11/05 02:42:50;;;;;;;37.78;14.18;;;;;;;;;;1028555;28;20082;-76
2022/11/05 02:43:21;;;;;;;;;;;;;;;;;;1028662;28;20023;-77
2022/11/05 02:43:54;;;;;;;35.33;14.98;;;;;;;;;;1028431;28;19957;-78
2022/11/05 02:44:45;;;;;;;35.58;12.85;;;;;;;;;;1028670;28;20027;-77
2022/11/05 02:45:35;;;;;;;31.58;14.35;;;;;;;;;;1031234;28;20018;-77
2022/11/05 02:46:17;;;;;;;23.73;11.43;;;;;;;;;;1032877;28;20117;-77
2022/11/05 02:46:54;;;;;;;29.05;11.65;;;;;;;;;;1032394;28;20689;-77
2022/11/05 02:47:43;;;;;;;26.75;12.27;;;;;;;;;;1026722;28;20042;-77
2022/11/05 02:48:13;;;;;;;37.67;13.30;;;;;;;;;;1025819;28;20019;-77
2022/11/05 02:48:44;;;;;;;44.85;15.63;;;;;;;;;;1026992;28;20086;-77
2022/11/05 02:49:23;;;;;;;46.45;13.02;;;;;;;;;;1031390;28;20029;-77
2022/11/05 02:50:17;;;;;;;33.30;14.13;;;;;;;;;;1032775;28;20137;-78
2022/11/05 02:51:04;;;;;;;31.05;12.30;;;;;;;;;;1023234;28;20031;-78
2022/11/05 02:51:35;;;;;;;33.05;12.27;;;;;;;;;;1035497;28;20030;-78
2022/11/05 02:52:10;;;;;;;27.17;11.43;;;;;;;;;;1029700;28;20022;-77
2022/11/05 02:52:54;;;;;;;36.88;14.05;;;;;;;;;;1025544;28;20054;-77
2022/11/05 02:53:35;;;;;;;18.63;10.45;;;;;;;;;;1025634;28;20030;-77
2022/11/05 02:54:11;;;;;;;33.30;13.70;;;;;;;;;;1030506;28;20162;-77
2022/11/05 02:54:53;;;;;;;29.02;12.55;;;;;;;;;;1031387;28;20367;-77
2022/11/05 02:55:24;;;;;;;28.42;10.90;;;;;;;;;;1030835;28;20034;-77
2022/11/05 02:55:58;;;;;;;20.80;11.48;;;;;;;;;;1031967;28;20109;-77
2022/11/05 02:56:48;;;;;;;32.10;13.93;;;;;;;;;;1030059;28;20018;-77
2022/11/05 02:57:21;;;;;;;30.23;13.80;;;;;;;;;;1024968;28;20090;-77
2022/11/05 02:57:51;;;;;;;23.77;12.68;;;;;;;;;;1024736;28;20034;-77
2022/11/05 02:58:22;;;;;;;30.33;13.15;;;;;;;;;;1020451;28;20030;-77
2022/11/05 02:58:52;;;;;;;30.77;14.32;;;;;;;;;;1021587;28;20027;-77
2022/11/05 02:59:23;;;;;;;29.05;12.52;;;;;;;;;;1023305;29;20063;-77
2022/11/05 03:00:51;;;;;;;31.75;11.63;;;;;;;;;;1032635;23;20301;-74
2022/11/05 03:01:22;;;;;;;30.25;11.77;;;;;;;;;;1028098;28;20034;-74
2022/11/05 03:01:52;;;;;;;19.52;10.30;;;;;;;;;;1029257;28;20453;-76
2022/11/05 03:02:23;;;;;;;30.02;11.25;;;;;;;;;;1024716;28;20049;-75
2022/11/05 03:02:55;;;;;;;29.27;11.95;;;;;;;;;;1025801;28;20338;-75
2022/11/05 03:03:36;;;;;;;26.10;11.20;;;;;;;;;;1021166;28;20024;-75
2022/11/05 03:04:08;;;;;;;28.17;12.30;;;;;;;;;;1025374;28;20453;-75
2022/11/05 03:04:39;;;;;;;24.27;10.27;;;;;;;;;;1024543;28;20114;-75
2022/11/05 03:05:10;;;;;;;37.50;12.45;;;;;;;;;;1025405;28;20023;-75
2022/11/05 03:05:59;;;;;;;25.73;11.95;;;;;;;;;;1023489;28;20159;-74
2022/11/05 03:06:42;;;;;;;32.22;11.93;;;;;;;;;;1028141;28;20023;-75
2022/11/05 03:07:18;;;;;;;31.98;10.07;;;;;;;;;;1024236;28;20426;-75
2022/11/05 03:07:54;;;;;;;33.65;10.45;;;;;;;;;;1025550;28;20022;-75
2022/11/05 03:08:45;;;;;;;22.83;10.43;;;;;;;;;;1026055;28;20031;-73
2022/11/05 03:09:22;;;;;;;28.55;11.85;;;;;;;;;;1027998;28;20596;-74
2022/11/05 03:10:02;;;;;;;26.60;11.32;;;;;;;;;;1030031;28;20089;-74
2022/11/05 03:10:39;;;;;;;29.87;10.50;;;;;;;;;;1025348;28;20029;-73
2022/11/05 03:11:14;;;;;;;22.30;10.65;;;;;;;;;;1023902;28;20633;-73
2022/11/05 03:11:53;;;;;;;36.25;10.23;;;;;;;;;;1025996;28;20129;-73
2022/11/05 03:12:30;;;;;;;22.30;10.25;;;;;;;;;;1030358;28;20026;-73
2022/11/05 03:13:09;;;;;;;21.77;9.02;;;;;;;;;;1032750;28;20413;-74
2022/11/05 03:14:05;;;;;;;29.95;9.80;;;;;;;;;;1031977;28;20097;-74
2022/11/05 03:14:50;;;;;;;19.20;9.07;;;;;;;;;;1029108;28;20019;-74
2022/11/05 03:15:30;;;;;;;26.83;9.43;;;;;;;;;;1028584;28;20022;-73
2022/11/05 03:16:05;;;;;;;21.92;8.85;;;;;;;;;;1029191;28;20030;-74
2022/11/05 03:16:41;;;;;;;34.60;10.45;;;;;;;;;;1029669;28;20060;-74
2022/11/05 03:17:26;;;;;;;24.52;9.63;;;;;;;;;;1028455;28;20064;-74
2022/11/05 03:18:05;;;;;;;17.30;9.80;;;;;;;;;;1029718;28;20371;-74
2022/11/05 03:18:49;;;;;;;24.17;9.70;;;;;;;;;;1042849;23;20896;-75
2022/11/05 03:19:27;;;;;;;15.75;7.97;;;;;;;;;;1038681;28;20041;-75
2022/11/05 03:20:07;;;;;;;22.73;9.95;;;;;;;;;;1037762;28;20033;-75
2022/11/05 03:20:38;;;;;;;;;;;;;;;;;;1038489;28;20409;-75
2022/11/05 03:21:11;;;;;;;15.85;7.65;;;;;;;;;;1037812;28;20047;-75
2022/11/05 03:21:47;;;;;;;21.45;9.18;;;;;;;;;;1035196;28;20049;-75
2022/11/05 03:22:24;;;;;;;14.18;8.85;;;;;;;;;;1035142;28;20146;-75
2022/11/05 03:23:03;;;;;;;15.77;7.65;;;;;;;;;;1034863;28;20026;-75
2022/11/05 03:23:34;;;;;;;17.55;8.75;;;;;;;;;;1037363;28;20022;-75
2022/11/05 03:24:16;;;;;;;20.50;9.02;;;;;;;;;;1033679;28;20036;-74
2022/11/05 03:24:50;;;;;;;23.52;8.65;;;;;;;;;;1034138;28;20555;-74
2022/11/05 03:25:22;;;;;;;20.83;8.15;;;;;;;;;;1034085;28;20022;-74
2022/11/05 03:26:00;;;;;;;23.88;7.28;;;;;;;;;;1035410;28;20026;-75
2022/11/05 03:26:37;;;;;;;17.30;7.95;;;;;;;;;;1034567;28;20116;-74
2022/11/05 03:27:10;;;;;;;15.23;7.30;;;;;;;;;;1034227;28;20072;-75
2022/11/05 03:27:43;;;;;;;30.35;8.70;;;;;;;;;;1035044;28;20033;-74
2022/11/05 03:28:16;;;;;;;18.90;6.95;;;;;;;;;;1035276;28;20026;-74
2022/11/05 03:28:49;;;;;;;15.93;7.70;;;;;;;;;;1038441;28;20029;-74
2022/11/05 03:29:23;;;;;;;19.33;8.77;;;;;;;;;;1035750;28;20039;-74
2022/11/05 03:29:58;;;;;;;16.20;8.40;;;;;;;;;;1033544;28;20026;-74
2022/11/05 03:30:30;;;;;;;18.58;7.43;;;;;;;;;;1023628;28;20033;-74
2022/11/05 03:31:01;;;;;;;15.27;7.43;;;;;;;;;;1032370;28;20026;-75
2022/11/05 03:31:33;;;;;;;13.30;7.03;;;;;;;;;;1033684;28;20535;-75
2022/11/05 03:32:04;;;;;;;13.80;7.50;;;;;;;;;;1033337;28;20057;-75
2022/11/05 03:32:37;;;;;;;14.65;7.82;;;;;;;;;;1032582;28;20252;-75
2022/11/05 03:33:14;;;;;;;10.25;6.35;;;;;;;;;;1034034;28;20049;-76
2022/11/05 03:33:45;;;;;;;10.93;5.90;;;;;;;;;;1036606;28;20018;-76
2022/11/05 03:34:19;;;;;;;19.48;5.80;;;;;;;;;;1034627;28;20054;-75
2022/11/05 03:34:51;;;;;;;12.02;5.32;;;;;;;;;;1036188;28;20116;-75
2022/11/05 03:35:25;;;;;;;16.27;5.55;;;;;;;;;;1037150;28;20032;-75
2022/11/05 03:35:57;;;;;;;9.20;4.93;;;;;;;;;;1037691;28;20041;-75
2022/11/05 03:36:40;;;;;;;15.52;6.35;;;;;;;;;;1036122;28;20073;-75
2022/11/05 03:37:10;;;;;;;14.65;5.93;;;;;;;;;;1035770;28;20496;-75
2022/11/05 03:37:42;;;;;;;14.20;5.35;;;;;;;;;;1035193;28;20030;-75
2022/11/05 03:38:19;;;;;;;11.32;4.90;;;;;;;;;;1034702;28;20061;-75
2022/11/05 03:38:51;;;;;;;18.70;6.95;;;;;;;;;;1028886;28;20165;-75
2022/11/05 03:39:43;;;;;;;14.52;5.63;;;;;;;;;;1028335;28;20019;-76
2022/11/05 03:40:15;;;;;;;17.63;7.60;;;;;;;;;;1028943;28;20026;-76
2022/11/05 03:40:48;;;;;;;21.40;6.38;;;;;;;;;;1031503;28;20046;-77
2022/11/05 03:41:20;;;;;;;13.50;6.38;;;;;;;;;;1029359;28;20053;-76
2022/11/05 03:41:52;;;;;;;12.88;6.38;;;;;;;;;;1028849;28;20026;-75
2022/11/05 03:42:25;;;;;;;21.73;7.80;;;;;;;;;;1030593;28;20054;-76
2022/11/05 03:42:57;;;;;;;17.02;7.45;;;;;;;;;;1029857;28;20026;-77
2022/11/05 03:43:29;;;;;;;16.73;7.05;;;;;;;;;;1031665;28;20482;-77
2022/11/05 03:44:03;;;;;;;30.17;8.30;;;;;;;;;;1034258;28;20509;-76